sensor_id;sensor_type;location;lat;lon;timestamp;pressure;altitude;pressure_sealevel;temperature;humidity
57374;BME280;43964;53.890;25.340;2023-06-04T00:01:50;1031.1;;;9.1;48.4
57374;BME280;43964;53.890;25.340;2023-06-04T00:06:54;1031.1;;;9.1;48.4
57374;BME280;43964;53.890;25.340;2023-06-04T00:12:24;1031.2;;;9;48.5
57374;BME280;43964;53.890;25.340;2023-06-04T00:17:24;1031.2;;;9;48.6
57374;BME280;43964;53.890;25.340;2023-06-04T00:21:40;1031.1;;;8.9;49
57374;BME280;43964;53.890;25.340;2023-06-04T00:27:24;1031.1;;;8.8;49.3
57374;BME280;43964;53.890;25.340;2023-06-04T00:32:08;1031.1;;;8.8;49.5
57374;BME280;43964;53.890;25.340;2023-06-04T00:37:10;1031.1;;;8.7;49.7
57374;BME280;43964;53.890;25.340;2023-06-04T00:42:10;1031.1;;;8.6;49.8
57374;BME280;43964;53.890;25.340;2023-06-04T00:47:24;1031.1;;;8.6;49.8
57374;BME280;43964;53.890;25.340;2023-06-04T00:51:42;1031.1;;;8.5;49.7
57374;BME280;43964;53.890;25.340;2023-06-04T00:57:24;1031.1;;;8.5;49.7
57374;BME280;43964;53.890;25.340;2023-06-04T01:01:42;1031.1;;;8.4;49.7
57374;BME280;43964;53.890;25.340;2023-06-04T01:07:08;1031.1;;;8.4;49.7
57374;BME280;43964;53.890;25.340;2023-06-04T01:12:06;1031.1;;;8.3;49.7
57374;BME280;43964;53.890;25.340;2023-06-04T01:17:25;1031.1;;;8.3;49.9
57374;BME280;43964;53.890;25.340;2023-06-04T01:21:40;1031.1;;;8.2;50.3
57374;BME280;43964;53.890;25.340;2023-06-04T01:27:02;1031.1;;;8.2;50.5
57374;BME280;43964;53.890;25.340;2023-06-04T01:31:52;1031.2;;;8.1;50.7
57374;BME280;43964;53.890;25.340;2023-06-04T01:37:24;1031.2;;;8.1;50.8
57374;BME280;43964;53.890;25.340;2023-06-04T01:41:40;1031.2;;;8.1;50.9
57374;BME280;43964;53.890;25.340;2023-06-04T01:47:24;1031.2;;;8.1;50.8
57374;BME280;43964;53.890;25.340;2023-06-04T01:52:10;1031.2;;;8.1;50.7
57374;BME280;43964;53.890;25.340;2023-06-04T01:57:26;1031.2;;;8.1;50.6
57374;BME280;43964;53.890;25.340;2023-06-04T02:01:40;1031.3;;;8.1;50.6
57374;BME280;43964;53.890;25.340;2023-06-04T02:07:26;1031.3;;;8.1;50.5
57374;BME280;43964;53.890;25.340;2023-06-04T02:12:10;1031.3;;;8.2;50.5
57374;BME280;43964;53.890;25.340;2023-06-04T02:17:26;1031.3;;;8.3;50.6
57374;BME280;43964;53.890;25.340;2023-06-04T02:21:44;1031.2;;;8.5;50.5
57374;BME280;43964;53.890;25.340;2023-06-04T02:27:26;1031.2;;;8.9;50.2
57374;BME280;43964;53.890;25.340;2023-06-04T02:32:10;1031.1;;;11.3;47.3
57374;BME280;43964;53.890;25.340;2023-06-04T02:37:26;1031.1;;;14.3;43.5
57374;BME280;43964;53.890;25.340;2023-06-04T02:41:44;1031.1;;;16.7;41.2
57374;BME280;43964;53.890;25.340;2023-06-04T02:47:26;1031.1;;;18.4;39.7
57374;BME280;43964;53.890;25.340;2023-06-04T02:51:46;1031.1;;;20;38
57374;BME280;43964;53.890;25.340;2023-06-04T02:57:26;1031.1;;;21.7;36.1
57374;BME280;43964;53.890;25.340;2023-06-04T03:01:52;1031.1;;;23.3;34.2
57374;BME280;43964;53.890;25.340;2023-06-04T03:07:26;1031;;;24.3;32.4
57374;BME280;43964;53.890;25.340;2023-06-04T03:12:08;1031;;;25.3;29.9
57374;BME280;43964;53.890;25.340;2023-06-04T03:17:26;1030.9;;;26.6;27.3
57374;BME280;43964;53.890;25.340;2023-06-04T03:21:40;1030.9;;;28;25.5
57374;BME280;43964;53.890;25.340;2023-06-04T03:27:26;1031;;;28.5;24.6
57374;BME280;43964;53.890;25.340;2023-06-04T03:32:08;1031;;;28;24.4
57374;BME280;43964;53.890;25.340;2023-06-04T03:37:26;1031.1;;;26.8;25
57374;BME280;43964;53.890;25.340;2023-06-04T03:41:52;1031.2;;;25.6;25.8
57374;BME280;43964;53.890;25.340;2023-06-04T03:47:26;1031.2;;;26.1;25.4
57374;BME280;43964;53.890;25.340;2023-06-04T03:52:10;1031.1;;;27;24.6
57374;BME280;43964;53.890;25.340;2023-06-04T03:57:26;1031.1;;;27.2;24.3
57374;BME280;43964;53.890;25.340;2023-06-04T04:01:56;1031.2;;;28.2;23.5
57374;BME280;43964;53.890;25.340;2023-06-04T04:07:26;1031.2;;;27.8;23.6
57374;BME280;43964;53.890;25.340;2023-06-04T04:12:10;1031.1;;;27.5;23.2
57374;BME280;43964;53.890;25.340;2023-06-04T04:17:26;1031.2;;;27.9;22.8
57374;BME280;43964;53.890;25.340;2023-06-04T04:21:40;1031.2;;;28.9;21.8
57374;BME280;43964;53.890;25.340;2023-06-04T04:27:24;1031.2;;;30.1;21.3
57374;BME280;43964;53.890;25.340;2023-06-04T04:31:42;1031.3;;;30.1;21.4
57374;BME280;43964;53.890;25.340;2023-06-04T04:37:26;1031.3;;;29.5;21.8
57374;BME280;43964;53.890;25.340;2023-06-04T04:42:10;1031.3;;;27.7;22.8
57374;BME280;43964;53.890;25.340;2023-06-04T04:47:26;1031.2;;;29.1;21.8
57374;BME280;43964;53.890;25.340;2023-06-04T04:52:26;1031.1;;;31.3;20.5
57374;BME280;43964;53.890;25.340;2023-06-04T04:57:26;1031;;;33.1;19
57374;BME280;43964;53.890;25.340;2023-06-04T05:01:52;1031;;;35.7;17.5
57374;BME280;43964;53.890;25.340;2023-06-04T05:07:26;1031;;;37.2;16.7
57374;BME280;43964;53.890;25.340;2023-06-04T05:11:58;1031;;;40.4;15.5
57374;BME280;43964;53.890;25.340;2023-06-04T05:17:26;1031;;;42.4;14.4
57374;BME280;43964;53.890;25.340;2023-06-04T05:21:52;1031;;;43.9;13.4
57374;BME280;43964;53.890;25.340;2023-06-04T05:27:24;1031;;;45;12.6
57374;BME280;43964;53.890;25.340;2023-06-04T05:32:08;1031;;;45.8;11.6
57374;BME280;43964;53.890;25.340;2023-06-04T05:37:26;1031;;;46;10.7
57374;BME280;43964;53.890;25.340;2023-06-04T05:41:46;1031;;;44;11.3
57374;BME280;43964;53.890;25.340;2023-06-04T05:47:26;1031;;;38.6;14
57374;BME280;43964;53.890;25.340;2023-06-04T05:52:10;1031.1;;;34.3;16
57374;BME280;43964;53.890;25.340;2023-06-04T05:57:26;1031.1;;;31.6;17.3
57374;BME280;43964;53.890;25.340;2023-06-04T06:01:52;1031.2;;;29.6;18.6
57374;BME280;43964;53.890;25.340;2023-06-04T06:07:26;1031.2;;;28.3;19.4
57374;BME280;43964;53.890;25.340;2023-06-04T06:12:08;1031.2;;;27.2;20.5
57374;BME280;43964;53.890;25.340;2023-06-04T06:17:26;1031.2;;;26.1;21.7
57374;BME280;43964;53.890;25.340;2023-06-04T06:21:40;1031.2;;;25.1;22.7
57374;BME280;43964;53.890;25.340;2023-06-04T06:27:26;1031.3;;;24.6;23.4
57374;BME280;43964;53.890;25.340;2023-06-04T06:32:08;1031.2;;;24.5;24
57374;BME280;43964;53.890;25.340;2023-06-04T06:37:26;1031.2;;;24.3;24.1
57374;BME280;43964;53.890;25.340;2023-06-04T06:41:52;1031.2;;;24;24.4
57374;BME280;43964;53.890;25.340;2023-06-04T06:47:24;1031.2;;;23.7;24.8
57374;BME280;43964;53.890;25.340;2023-06-04T06:52:10;1031.2;;;23.6;24.9
57374;BME280;43964;53.890;25.340;2023-06-04T06:57:26;1031.2;;;23.5;25.1
57374;BME280;43964;53.890;25.340;2023-06-04T07:02:04;1031.1;;;23.5;25.5
57374;BME280;43964;53.890;25.340;2023-06-04T07:07:26;1031.1;;;23.4;25.6
57374;BME280;43964;53.890;25.340;2023-06-04T07:12:06;1031.1;;;23.5;25.5
57374;BME280;43964;53.890;25.340;2023-06-04T07:17:26;1031.1;;;23.6;25.5
57374;BME280;43964;53.890;25.340;2023-06-04T07:21:40;1031;;;24.1;25.3
57374;BME280;43964;53.890;25.340;2023-06-04T07:32:08;1030.9;;;25.2;24.6
57374;BME280;43964;53.890;25.340;2023-06-04T07:37:26;1030.8;;;25.3;24.4
57374;BME280;43964;53.890;25.340;2023-06-04T07:41:46;1030.8;;;24.6;24.4
57374;BME280;43964;53.890;25.340;2023-06-04T07:47:26;1030.8;;;24.3;24.6
57374;BME280;43964;53.890;25.340;2023-06-04T07:52:26;1030.8;;;24.2;24.5
57374;BME280;43964;53.890;25.340;2023-06-04T07:57:26;1030.8;;;23.9;24.5
57374;BME280;43964;53.890;25.340;2023-06-04T08:01:52;1030.8;;;23.8;24.4
57374;BME280;43964;53.890;25.340;2023-06-04T08:07:26;1030.8;;;24.1;24.4
57374;BME280;43964;53.890;25.340;2023-06-04T08:12:08;1030.8;;;23.7;24.5
57374;BME280;43964;53.890;25.340;2023-06-04T08:17:24;1030.9;;;23.4;24.5
57374;BME280;43964;53.890;25.340;2023-06-04T08:21:50;1030.8;;;23.6;24.5
57374;BME280;43964;53.890;25.340;2023-06-04T08:27:26;1030.8;;;24;24.5
57374;BME280;43964;53.890;25.340;2023-06-04T08:32:08;1030.7;;;23.9;24.5
57374;BME280;43964;53.890;25.340;2023-06-04T08:37:26;1030.7;;;23.8;24.5
57374;BME280;43964;53.890;25.340;2023-06-04T08:41:52;1030.6;;;24;24.4
57374;BME280;43964;53.890;25.340;2023-06-04T08:47:24;1030.7;;;23.8;24.4
57374;BME280;43964;53.890;25.340;2023-06-04T08:51:54;1030.6;;;24;24.4
57374;BME280;43964;53.890;25.340;2023-06-04T08:57:26;1030.6;;;24.1;24.2
57374;BME280;43964;53.890;25.340;2023-06-04T09:01:40;1030.5;;;24;24
57374;BME280;43964;53.890;25.340;2023-06-04T09:07:10;1030.5;;;24.2;23.8
57374;BME280;43964;53.890;25.340;2023-06-04T09:12:08;1030.5;;;24.6;23.5
57374;BME280;43964;53.890;25.340;2023-06-04T09:17:26;1030.5;;;25.1;23.1
57374;BME280;43964;53.890;25.340;2023-06-04T09:21:51;1030.5;;;25.3;22.8
57374;BME280;43964;53.890;25.340;2023-06-04T09:27:24;1030.6;;;24.9;23
57374;BME280;43964;53.890;25.340;2023-06-04T09:32:11;1030.5;;;24.6;23
57374;BME280;43964;53.890;25.340;2023-06-04T09:37:20;1030.6;;;24.5;23.2
57374;BME280;43964;53.890;25.340;2023-06-04T09:41:40;1030.5;;;24.7;23.3
57374;BME280;43964;53.890;25.340;2023-06-04T09:47:26;1030.5;;;24.9;23.1
57374;BME280;43964;53.890;25.340;2023-06-04T09:52:08;1030.4;;;25.1;22.7
57374;BME280;43964;53.890;25.340;2023-06-04T09:56:54;1030.4;;;25.3;22.4
57374;BME280;43964;53.890;25.340;2023-06-04T10:01:40;1030.3;;;25.2;22.4
57374;BME280;43964;53.890;25.340;2023-06-04T10:07:26;1030.3;;;25.1;22.5
57374;BME280;43964;53.890;25.340;2023-06-04T10:11:58;1030.2;;;25.4;22.5
57374;BME280;43964;53.890;25.340;2023-06-04T10:17:21;1030.3;;;25;22.6
57374;BME280;43964;53.890;25.340;2023-06-04T10:21:50;1030.2;;;24.8;22.7
57374;BME280;43964;53.890;25.340;2023-06-04T10:27:26;1030.2;;;25.2;22.5
57374;BME280;43964;53.890;25.340;2023-06-04T10:32:10;1030.2;;;25.2;22.5
57374;BME280;43964;53.890;25.340;2023-06-04T10:37:18;1030.1;;;25.1;22.2
57374;BME280;43964;53.890;25.340;2023-06-04T10:41:40;1030.1;;;24.9;22.3
57374;BME280;43964;53.890;25.340;2023-06-04T10:47:25;1030.1;;;25;22.3
57374;BME280;43964;53.890;25.340;2023-06-04T10:52:09;1030;;;25;22.2
57374;BME280;43964;53.890;25.340;2023-06-04T10:57:20;1030;;;24.7;22.3
57374;BME280;43964;53.890;25.340;2023-06-04T11:01:40;1030;;;24.8;22.4
57374;BME280;43964;53.890;25.340;2023-06-04T11:07:28;1030;;;24.7;22.3
57374;BME280;43964;53.890;25.340;2023-06-04T11:12:28;1029.9;;;24.4;22.4
57374;BME280;43964;53.890;25.340;2023-06-04T11:17:18;1029.9;;;24.2;22.6
57374;BME280;43964;53.890;25.340;2023-06-04T11:22:04;1029.9;;;24.3;22.7
57374;BME280;43964;53.890;25.340;2023-06-04T11:27:28;1029.9;;;25;22.4
57374;BME280;43964;53.890;25.340;2023-06-04T11:32:20;1029.8;;;25.7;22.2
57374;BME280;43964;53.890;25.340;2023-06-04T11:37:20;1029.8;;;26.2;21.7
57374;BME280;43964;53.890;25.340;2023-06-04T11:41:40;1029.8;;;26.3;21.7
57374;BME280;43964;53.890;25.340;2023-06-04T11:47:28;1029.7;;;26.3;21.6
57374;BME280;43964;53.890;25.340;2023-06-04T11:52:12;1029.7;;;26.5;21.4
57374;BME280;43964;53.890;25.340;2023-06-04T11:57:28;1029.7;;;26.5;21.3
57374;BME280;43964;53.890;25.340;2023-06-04T12:01:52;1029.7;;;26.4;21.1
57374;BME280;43964;53.890;25.340;2023-06-04T12:07:24;1029.7;;;26.4;21.1
57374;BME280;43964;53.890;25.340;2023-06-04T12:12:10;1029.6;;;26.2;21.1
57374;BME280;43964;53.890;25.340;2023-06-04T12:17:20;1029.6;;;25.7;21.3
57374;BME280;43964;53.890;25.340;2023-06-04T12:21:58;1029.6;;;25.5;21.2
57374;BME280;43964;53.890;25.340;2023-06-04T12:27:26;1029.6;;;25.5;21.4
57374;BME280;43964;53.890;25.340;2023-06-04T12:32:10;1029.6;;;25.8;21.4
57374;BME280;43964;53.890;25.340;2023-06-04T12:37:18;1029.5;;;25.7;21.5
57374;BME280;43964;53.890;25.340;2023-06-04T12:41:48;1029.6;;;25.2;21.7
57374;BME280;43964;53.890;25.340;2023-06-04T12:47:24;1029.6;;;24.9;21.8
57374;BME280;43964;53.890;25.340;2023-06-04T12:52:02;1029.6;;;24.9;21.6
57374;BME280;43964;53.890;25.340;2023-06-04T12:57:18;1029.5;;;25;21.5
57374;BME280;43964;53.890;25.340;2023-06-04T13:01:40;1029.5;;;25.2;21.4
57374;BME280;43964;53.890;25.340;2023-06-04T13:07:24;1029.5;;;25.3;21.4
57374;BME280;43964;53.890;25.340;2023-06-04T13:12:08;1029.5;;;25.4;21.4
57374;BME280;43964;53.890;25.340;2023-06-04T13:17:20;1029.5;;;25.4;21.3
57374;BME280;43964;53.890;25.340;2023-06-04T13:22:12;1029.5;;;25.5;21.2
57374;BME280;43964;53.890;25.340;2023-06-04T13:27:26;1029.4;;;25.2;21.3
57374;BME280;43964;53.890;25.340;2023-06-04T13:32:08;1029.5;;;25;21.5
57374;BME280;43964;53.890;25.340;2023-06-04T13:37:20;1029.5;;;25.1;21.5
57374;BME280;43964;53.890;25.340;2023-06-04T13:41:40;1029.4;;;25.5;21.4
57374;BME280;43964;53.890;25.340;2023-06-04T13:47:26;1029.3;;;25.4;21.5
57374;BME280;43964;53.890;25.340;2023-06-04T13:52:10;1029.3;;;25;21.7
57374;BME280;43964;53.890;25.340;2023-06-04T13:57:20;1029.3;;;24.7;21.8
57374;BME280;43964;53.890;25.340;2023-06-04T14:01:52;1029.3;;;24.7;21.9
57374;BME280;43964;53.890;25.340;2023-06-04T14:07:10;1029.2;;;24.7;21.9
57374;BME280;43964;53.890;25.340;2023-06-04T14:12:18;1029.2;;;24.9;21.9
57374;BME280;43964;53.890;25.340;2023-06-04T14:17:26;1029.2;;;24.9;21.7
57374;BME280;43964;53.890;25.340;2023-06-04T14:21:40;1029.2;;;24.9;21.8
57374;BME280;43964;53.890;25.340;2023-06-04T14:27:12;1029.1;;;24.8;21.8
57374;BME280;43964;53.890;25.340;2023-06-04T14:31:42;1029.1;;;24.5;21.9
57374;BME280;43964;53.890;25.340;2023-06-04T14:37:26;1029;;;24.5;21.9
57374;BME280;43964;53.890;25.340;2023-06-04T14:42:04;1029.1;;;24.3;22.1
57374;BME280;43964;53.890;25.340;2023-06-04T14:47:10;1029;;;24.1;22.3
57374;BME280;43964;53.890;25.340;2023-06-04T14:51:54;1029;;;23.7;22.3
57374;BME280;43964;53.890;25.340;2023-06-04T14:57:02;1029;;;23.8;22.3
57374;BME280;43964;53.890;25.340;2023-06-04T15:01:52;1029;;;24;22.3
57374;BME280;43964;53.890;25.340;2023-06-04T15:07:10;1029;;;24.3;22.2
57374;BME280;43964;53.890;25.340;2023-06-04T15:12:20;1028.9;;;24.4;22.1
57374;BME280;43964;53.890;25.340;2023-06-04T15:17:26;1029;;;24.3;22.1
57374;BME280;43964;53.890;25.340;2023-06-04T15:21:40;1028.9;;;24.4;22
57374;BME280;43964;53.890;25.340;2023-06-04T15:27:08;1028.8;;;24.5;22
57374;BME280;43964;53.890;25.340;2023-06-04T15:32:20;1028.8;;;24.5;22
57374;BME280;43964;53.890;25.340;2023-06-04T15:37:28;1028.8;;;24.6;22
57374;BME280;43964;53.890;25.340;2023-06-04T15:42:20;1028.8;;;24.8;22
57374;BME280;43964;53.890;25.340;2023-06-04T15:47:12;1028.7;;;24.7;22
57374;BME280;43964;53.890;25.340;2023-06-04T15:52:18;1028.7;;;24.5;22
57374;BME280;43964;53.890;25.340;2023-06-04T15:57:28;1028.6;;;24.6;22
57374;BME280;43964;53.890;25.340;2023-06-04T16:01:52;1028.6;;;24.5;22
57374;BME280;43964;53.890;25.340;2023-06-04T16:07:12;1028.6;;;24.2;22.1
57374;BME280;43964;53.890;25.340;2023-06-04T16:12:20;1028.6;;;23.9;22.3
57374;BME280;43964;53.890;25.340;2023-06-04T16:17:26;1028.6;;;23.5;22.5
57374;BME280;43964;53.890;25.340;2023-06-04T16:21:52;1028.5;;;23.3;22.6
57374;BME280;43964;53.890;25.340;2023-06-04T16:27:12;1028.5;;;23.2;22.9
57374;BME280;43964;53.890;25.340;2023-06-04T16:32:18;1028.5;;;23.1;23
57374;BME280;43964;53.890;25.340;2023-06-04T16:37:26;1028.5;;;23;23
57374;BME280;43964;53.890;25.340;2023-06-04T16:41:40;1028.4;;;22.8;23.3
57374;BME280;43964;53.890;25.340;2023-06-04T16:47:08;1028.5;;;22.5;23.5
57374;BME280;43964;53.890;25.340;2023-06-04T16:52:20;1028.5;;;22.5;23.6
57374;BME280;43964;53.890;25.340;2023-06-04T16:57:26;1028.5;;;22.4;23.6
57374;BME280;43964;53.890;25.340;2023-06-04T17:01:50;1028.5;;;22.3;23.7
57374;BME280;43964;53.890;25.340;2023-06-04T17:07:10;1028.5;;;22.3;23.8
57374;BME280;43964;53.890;25.340;2023-06-04T17:12:18;1028.5;;;22.2;23.9
57374;BME280;43964;53.890;25.340;2023-06-04T17:17:26;1028.6;;;22.2;24
57374;BME280;43964;53.890;25.340;2023-06-04T17:21:40;1028.5;;;22.2;24.2
57374;BME280;43964;53.890;25.340;2023-06-04T17:27:08;1028.5;;;22.2;24.4
57374;BME280;43964;53.890;25.340;2023-06-04T17:32:20;1028.5;;;22.1;24.5
57374;BME280;43964;53.890;25.340;2023-06-04T17:37:24;1028.6;;;22.1;24.7
57374;BME280;43964;53.890;25.340;2023-06-04T17:41:52;1028.6;;;21.9;25.1
57374;BME280;43964;53.890;25.340;2023-06-04T17:47:12;1028.7;;;21.7;25
57374;BME280;43964;53.890;25.340;2023-06-04T17:51:42;1028.6;;;21.4;25.9
57374;BME280;43964;53.890;25.340;2023-06-04T17:57:28;1028.7;;;21.2;26.1
57374;BME280;43964;53.890;25.340;2023-06-04T18:02:18;1028.7;;;21.1;25.9
57374;BME280;43964;53.890;25.340;2023-06-04T18:07:12;1028.7;;;21;26
57374;BME280;43964;53.890;25.340;2023-06-04T18:12:20;1028.7;;;21;26.1
57374;BME280;43964;53.890;25.340;2023-06-04T18:17:28;1028.7;;;20.9;26.7
57374;BME280;43964;53.890;25.340;2023-06-04T18:21:40;1028.7;;;20.7;27.2
57374;BME280;43964;53.890;25.340;2023-06-04T18:27:12;1028.7;;;20.5;27.4
57374;BME280;43964;53.890;25.340;2023-06-04T18:31:40;1028.8;;;20.2;27.6
57374;BME280;43964;53.890;25.340;2023-06-04T18:37:24;1028.8;;;19.9;28.2
57374;BME280;43964;53.890;25.340;2023-06-04T18:42:22;1028.8;;;19.6;28.9
57374;BME280;43964;53.890;25.340;2023-06-04T18:47:26;1028.9;;;19.4;29.4
57374;BME280;43964;53.890;25.340;2023-06-04T18:52:06;1028.9;;;19.2;30
57374;BME280;43964;53.890;25.340;2023-06-04T18:56:54;1028.9;;;18.9;30.7
57374;BME280;43964;53.890;25.340;2023-06-04T19:02:12;1029;;;18.7;31.5
57374;BME280;43964;53.890;25.340;2023-06-04T19:06:52;1029;;;18.5;31.7
57374;BME280;43964;53.890;25.340;2023-06-04T19:11:54;1029;;;18.3;31.7
57374;BME280;43964;53.890;25.340;2023-06-04T19:17:06;1029.1;;;18;31.9
57374;BME280;43964;53.890;25.340;2023-06-04T19:22:12;1029.1;;;17.8;32.3
57374;BME280;43964;53.890;25.340;2023-06-04T19:26:50;1029.1;;;17.5;32.7
57374;BME280;43964;53.890;25.340;2023-06-04T19:32:06;1029.1;;;17.3;32.9
57374;BME280;43964;53.890;25.340;2023-06-04T19:36:52;1029.1;;;17.1;33.5
57374;BME280;43964;53.890;25.340;2023-06-04T19:42:00;1029.1;;;17;34
57374;BME280;43964;53.890;25.340;2023-06-04T19:47:02;1029.2;;;16.8;34.4
57374;BME280;43964;53.890;25.340;2023-06-04T19:52:06;1029.2;;;16.6;34.5
57374;BME280;43964;53.890;25.340;2023-06-04T19:56:40;1029.2;;;16.4;34.9
57374;BME280;43964;53.890;25.340;2023-06-04T20:02:12;1029.2;;;16.2;35.1
57374;BME280;43964;53.890;25.340;2023-06-04T20:07:06;1029.3;;;16.1;35.3
57374;BME280;43964;53.890;25.340;2023-06-04T20:12:06;1029.3;;;15.9;35.6
57374;BME280;43964;53.890;25.340;2023-06-04T20:17:06;1029.3;;;15.7;36
57374;BME280;43964;53.890;25.340;2023-06-04T20:22:12;1029.3;;;15.5;36.2
57374;BME280;43964;53.890;25.340;2023-06-04T20:27:04;1029.3;;;15.4;36.4
57374;BME280;43964;53.890;25.340;2023-06-04T20:32:12;1029.3;;;15.3;36.9
57374;BME280;43964;53.890;25.340;2023-06-04T20:36:52;1029.3;;;15.2;37.4
57374;BME280;43964;53.890;25.340;2023-06-04T20:41:42;1029.3;;;15.1;37.6
57374;BME280;43964;53.890;25.340;2023-06-04T20:46:52;1029.3;;;15;37.8
57374;BME280;43964;53.890;25.340;2023-06-04T20:52:06;1029.3;;;14.9;38
57374;BME280;43964;53.890;25.340;2023-06-04T20:56:41;1029.2;;;14.8;38.3
57374;BME280;43964;53.890;25.340;2023-06-04T21:02:08;1029.3;;;14.7;38.3
57374;BME280;43964;53.890;25.340;2023-06-04T21:06:52;1029.3;;;14.6;38.4
57374;BME280;43964;53.890;25.340;2023-06-04T21:12:12;1029.4;;;14.5;38.5
57374;BME280;43964;53.890;25.340;2023-06-04T21:16:54;1029.4;;;14.4;38.6
57374;BME280;43964;53.890;25.340;2023-06-04T21:21:56;1029.4;;;14.3;38.9
57374;BME280;43964;53.890;25.340;2023-06-04T21:26:40;1029.4;;;14.2;39.2
57374;BME280;43964;53.890;25.340;2023-06-04T21:32:06;1029.4;;;14.1;39.9
57374;BME280;43964;53.890;25.340;2023-06-04T21:36:40;1029.4;;;13.9;40.5
57374;BME280;43964;53.890;25.340;2023-06-04T21:42:14;1029.4;;;13.8;40.8
57374;BME280;43964;53.890;25.340;2023-06-04T21:46:40;1029.4;;;13.7;41.1
57374;BME280;43964;53.890;25.340;2023-06-04T21:51:40;1029.4;;;13.6;41.3
57374;BME280;43964;53.890;25.340;2023-06-04T21:56:52;1029.4;;;13.6;41.4
57374;BME280;43964;53.890;25.340;2023-06-04T22:02:12;1029.5;;;13.5;41.4
57374;BME280;43964;53.890;25.340;2023-06-04T22:07:02;1029.5;;;13.4;41.5
57374;BME280;43964;53.890;25.340;2023-06-04T22:12:04;1029.5;;;13.3;41.6
57374;BME280;43964;53.890;25.340;2023-06-04T22:16:40;1029.5;;;13.3;41.8
57374;BME280;43964;53.890;25.340;2023-06-04T22:22:12;1029.5;;;13.2;42
57374;BME280;43964;53.890;25.340;2023-06-04T22:26:40;1029.5;;;13.1;42.3
57374;BME280;43964;53.890;25.340;2023-06-04T22:32:04;1029.5;;;13;43.1
57374;BME280;43964;53.890;25.340;2023-06-04T22:36:40;1029.6;;;12.8;43.4
57374;BME280;43964;53.890;25.340;2023-06-04T22:42:10;1029.6;;;12.8;43.7
57374;BME280;43964;53.890;25.340;2023-06-04T22:46:50;1029.6;;;12.7;43.9
57374;BME280;43964;53.890;25.340;2023-06-04T22:52:04;1029.6;;;12.6;44.1
57374;BME280;43964;53.890;25.340;2023-06-04T22:56:40;1029.6;;;12.5;44.1
57374;BME280;43964;53.890;25.340;2023-06-04T23:01:40;1029.6;;;12.5;44.1
57374;BME280;43964;53.890;25.340;2023-06-04T23:07:02;1029.6;;;12.4;44.2
57374;BME280;43964;53.890;25.340;2023-06-04T23:11:50;1029.6;;;12.4;44.3
57374;BME280;43964;53.890;25.340;2023-06-04T23:17:04;1029.6;;;12.3;44.4
57374;BME280;43964;53.890;25.340;2023-06-04T23:21:48;1029.6;;;12.3;44.6
57374;BME280;43964;53.890;25.340;2023-06-04T23:26:48;1029.6;;;12.2;45.1
57374;BME280;43964;53.890;25.340;2023-06-04T23:31:40;1029.6;;;12.1;45.5
57374;BME280;43964;53.890;25.340;2023-06-04T23:37:16;1029.7;;;12.1;45.8
57374;BME280;43964;53.890;25.340;2023-06-04T23:41:52;1029.7;;;12;46
57374;BME280;43964;53.890;25.340;2023-06-04T23:46:48;1029.8;;;11.9;46.1
57374;BME280;43964;53.890;25.340;2023-06-04T23:51:40;1029.7;;;11.8;46.1
57374;BME280;43964;53.890;25.340;2023-06-04T23:56:52;1029.7;;;11.7;46.2
